createdAt,value
2019-02-16T00:00:01.982Z,1005.69
2019-02-16T00:01:02.070Z,1005.68
2019-02-16T00:02:02.157Z,1005.68
2019-02-16T00:03:02.243Z,1005.68
2019-02-16T00:04:02.329Z,1005.68
2019-02-16T00:05:02.414Z,1005.69
2019-02-16T00:06:02.495Z,1005.67
2019-02-16T00:07:02.580Z,1005.70
2019-02-16T00:08:02.667Z,1005.69
2019-02-16T00:09:02.750Z,1005.68
2019-02-16T00:10:02.841Z,1005.68
2019-02-16T00:11:02.924Z,1005.70
2019-02-16T00:12:03.006Z,1005.65
2019-02-16T00:13:03.090Z,1005.61
2019-02-16T00:14:03.175Z,1005.61
2019-02-16T00:15:03.262Z,1005.61
2019-02-16T00:16:03.353Z,1005.59
2019-02-16T00:17:03.434Z,1005.57
2019-02-16T00:18:03.516Z,1005.58
2019-02-16T00:19:03.605Z,1005.56
2019-02-16T00:20:03.691Z,1005.56
2019-02-16T00:21:04.398Z,1005.59
2019-02-16T00:22:03.861Z,1005.61
2019-02-16T00:23:03.949Z,1005.57
2019-02-16T00:24:04.043Z,1005.58
2019-02-16T00:25:04.125Z,1005.55
2019-02-16T00:26:04.214Z,1005.55
2019-02-16T00:27:04.300Z,1005.55
2019-02-16T00:28:04.382Z,1005.54
2019-02-16T00:29:04.469Z,1005.54
2019-02-16T00:30:04.556Z,1005.56
2019-02-16T00:31:04.642Z,1005.48
2019-02-16T00:32:04.730Z,1005.54
2019-02-16T00:33:04.815Z,1005.54
2019-02-16T00:34:04.902Z,1005.56
2019-02-16T00:35:04.990Z,1005.53
2019-02-16T00:36:05.074Z,1005.55
2019-02-16T00:37:05.160Z,1005.51
2019-02-16T00:38:05.252Z,1005.50
2019-02-16T00:39:05.334Z,1005.46
2019-02-16T00:40:05.419Z,1005.47
2019-02-16T00:41:05.507Z,1005.43
2019-02-16T00:42:05.593Z,1005.49
2019-02-16T00:43:05.681Z,1005.48
2019-02-16T00:44:05.767Z,1005.45
2019-02-16T00:45:05.857Z,1005.46
2019-02-16T00:46:05.938Z,1005.47
2019-02-16T00:47:06.033Z,1005.48
2019-02-16T00:48:06.111Z,1005.47
2019-02-16T00:49:06.198Z,1005.45
2019-02-16T00:50:06.283Z,1005.42
2019-02-16T00:51:13.241Z,1005.50
2019-02-16T00:52:06.458Z,1005.44
2019-02-16T00:53:06.538Z,1005.45
2019-02-16T00:54:06.626Z,1005.46
2019-02-16T00:55:06.713Z,1005.45
2019-02-16T00:56:06.800Z,1005.44
2019-02-16T00:57:06.885Z,1005.50
2019-02-16T00:58:06.970Z,1005.47
2019-02-16T00:59:07.057Z,1005.49
2019-02-16T01:00:07.143Z,1005.48
2019-02-16T01:01:07.232Z,1005.50
2019-02-16T01:02:07.305Z,1005.46
2019-02-16T01:03:07.391Z,1005.47
2019-02-16T01:04:07.476Z,1005.51
2019-02-16T01:05:07.561Z,1005.44
2019-02-16T01:06:07.651Z,1005.49
2019-02-16T01:07:07.797Z,1005.47
2019-02-16T01:08:07.819Z,1005.47
2019-02-16T01:09:07.904Z,1005.45
2019-02-16T01:10:07.993Z,1005.48
2019-02-16T01:11:08.070Z,1005.47
2019-02-16T01:12:08.157Z,1005.54
2019-02-16T01:13:08.243Z,1005.46
2019-02-16T01:14:08.328Z,1005.47
2019-02-16T01:15:08.414Z,1005.48
2019-02-16T01:16:08.502Z,1005.47
2019-02-16T01:17:08.585Z,1005.46
2019-02-16T01:18:09.207Z,1005.50
2019-02-16T01:19:08.774Z,1005.45
2019-02-16T01:20:08.855Z,1005.47
2019-02-16T01:21:08.941Z,1005.46
2019-02-16T01:22:09.032Z,1005.46
2019-02-16T01:23:09.121Z,1005.48
2019-02-16T01:24:09.207Z,1005.46
2019-02-16T01:25:09.291Z,1005.46
2019-02-16T01:26:09.377Z,1005.48
2019-02-16T01:27:09.462Z,1005.48
2019-02-16T01:28:09.554Z,1005.45
2019-02-16T01:29:09.634Z,1005.46
2019-02-16T01:30:09.721Z,1005.48
2019-02-16T01:31:09.804Z,1005.42
2019-02-16T01:32:09.891Z,1005.43
2019-02-16T01:33:09.980Z,1005.40
2019-02-16T01:34:10.063Z,1005.40
2019-02-16T01:35:10.148Z,1005.43
2019-02-16T01:36:10.232Z,1005.43
2019-02-16T01:37:10.321Z,1005.39
2019-02-16T01:38:10.405Z,1005.41
2019-02-16T01:39:10.491Z,1005.37
2019-02-16T01:40:10.579Z,1005.34
2019-02-16T01:41:10.664Z,1005.31
2019-02-16T01:42:10.749Z,1005.35
2019-02-16T01:43:10.835Z,1005.28
2019-02-16T01:44:10.922Z,1005.29
2019-02-16T01:45:11.011Z,1005.27
2019-02-16T01:46:11.094Z,1005.32
2019-02-16T01:47:11.182Z,1005.27
2019-02-16T01:48:11.271Z,1005.26
2019-02-16T01:49:11.356Z,1005.27
2019-02-16T01:50:11.441Z,1005.26
2019-02-16T01:51:11.524Z,1005.27
2019-02-16T01:52:11.613Z,1005.26
2019-02-16T01:53:11.700Z,1005.29
2019-02-16T01:54:11.783Z,1005.29
2019-02-16T01:55:11.874Z,1005.27
2019-02-16T01:56:11.959Z,1005.26
2019-02-16T01:57:12.044Z,1005.23
2019-02-16T01:58:12.127Z,1005.20
2019-02-16T01:59:12.211Z,1005.20
2019-02-16T02:00:12.296Z,1005.22
2019-02-16T02:01:12.382Z,1005.24
2019-02-16T02:02:12.481Z,1005.19
2019-02-16T02:03:12.555Z,1005.19
2019-02-16T02:04:12.640Z,1005.16
2019-02-16T02:05:12.726Z,1005.19
2019-02-16T02:06:12.811Z,1005.22
2019-02-16T02:07:12.909Z,1005.15
2019-02-16T02:08:12.984Z,1005.19
2019-02-16T02:09:13.068Z,1005.18
2019-02-16T02:10:13.155Z,1005.17
2019-02-16T02:11:13.239Z,1005.13
2019-02-16T02:12:13.328Z,1005.17
2019-02-16T02:13:13.411Z,1005.18
2019-02-16T02:14:13.498Z,1005.14
2019-02-16T02:15:13.584Z,1005.16
2019-02-16T02:16:13.668Z,1005.16
2019-02-16T02:17:13.754Z,1005.13
2019-02-16T02:18:13.839Z,1005.16
2019-02-16T02:19:13.929Z,1005.13
2019-02-16T02:20:22.720Z,1005.14
2019-02-16T02:21:14.064Z,1005.13
2019-02-16T02:22:14.148Z,1005.09
2019-02-16T02:23:14.234Z,1005.12
2019-02-16T02:24:14.321Z,1005.10
2019-02-16T02:25:14.411Z,1005.08
2019-02-16T02:26:14.493Z,1005.06
2019-02-16T02:27:14.575Z,1005.05
2019-02-16T02:28:14.661Z,1005.09
2019-02-16T02:29:14.746Z,1005.06
2019-02-16T02:30:14.835Z,1005.00
2019-02-16T02:31:14.929Z,1005.02
2019-02-16T02:32:15.039Z,1005.03
2019-02-16T02:33:15.097Z,1005.00
2019-02-16T02:34:15.169Z,1005.04
2019-02-16T02:35:15.257Z,1005.07
2019-02-16T02:36:15.340Z,1005.03
2019-02-16T02:37:15.426Z,1005.04
2019-02-16T02:38:15.514Z,1004.99
2019-02-16T02:39:15.602Z,1005.03
2019-02-16T02:40:15.680Z,1005.02
2019-02-16T02:41:15.768Z,1004.99
2019-02-16T02:42:15.853Z,1005.00
2019-02-16T02:43:15.992Z,1004.99
2019-02-16T02:44:16.024Z,1005.04
2019-02-16T02:45:16.113Z,1005.00
2019-02-16T02:46:16.182Z,1004.97
2019-02-16T02:47:16.268Z,1005.03
2019-02-16T02:48:16.355Z,1004.99
2019-02-16T02:49:16.439Z,1005.06
2019-02-16T02:50:16.529Z,1004.99
2019-02-16T02:51:16.613Z,1005.01
2019-02-16T02:52:16.698Z,1004.94
2019-02-16T02:53:16.780Z,1004.98
2019-02-16T02:54:16.871Z,1005.00
2019-02-16T02:55:16.954Z,1004.94
2019-02-16T02:56:17.044Z,1004.95
2019-02-16T02:57:17.118Z,1005.00
2019-02-16T02:58:17.204Z,1004.92
2019-02-16T02:59:17.284Z,1004.91
2019-02-16T03:00:17.369Z,1004.93
2019-02-16T03:01:17.465Z,1004.94
2019-02-16T03:02:17.544Z,1004.95
2019-02-16T03:03:17.625Z,1004.93
2019-02-16T03:04:17.711Z,1005.01
2019-02-16T03:05:17.800Z,1004.98
2019-02-16T03:06:17.887Z,1005.00
2019-02-16T03:07:17.978Z,1004.97
2019-02-16T03:08:18.062Z,1005.00
2019-02-16T03:09:18.149Z,1004.96
2019-02-16T03:10:18.227Z,1004.98
2019-02-16T03:11:18.314Z,1004.95
2019-02-16T03:12:18.404Z,1005.00
2019-02-16T03:13:18.485Z,1004.97
2019-02-16T03:14:18.572Z,1004.99
2019-02-16T03:15:18.653Z,1004.96
2019-02-16T03:16:18.745Z,1004.96
2019-02-16T03:17:18.825Z,1004.93
2019-02-16T03:18:18.910Z,1004.93
2019-02-16T03:19:18.995Z,1004.92
2019-02-16T03:20:19.082Z,1004.93
2019-02-16T03:21:19.169Z,1004.92
2019-02-16T03:22:19.259Z,1004.96
2019-02-16T03:23:19.338Z,1004.96
2019-02-16T03:24:19.426Z,1004.86
2019-02-16T03:25:19.514Z,1004.93
2019-02-16T03:26:19.599Z,1004.92
2019-02-16T03:27:19.676Z,1004.92
2019-02-16T03:28:19.759Z,1004.85
2019-02-16T03:29:19.847Z,1004.90
2019-02-16T03:30:19.945Z,1004.87
2019-02-16T03:31:20.013Z,1004.86
2019-02-16T03:32:20.105Z,1004.85
2019-02-16T03:33:20.179Z,1004.85
2019-02-16T03:34:20.305Z,1004.85
2019-02-16T03:35:20.381Z,1004.83
2019-02-16T03:36:20.470Z,1004.84
2019-02-16T03:37:20.549Z,1004.81
2019-02-16T03:38:20.634Z,1004.83
2019-02-16T03:39:20.714Z,1004.83
2019-02-16T03:40:20.808Z,1004.81
2019-02-16T03:41:20.893Z,1004.86
2019-02-16T03:42:20.962Z,1004.80
2019-02-16T03:43:21.046Z,1004.79
2019-02-16T03:44:21.132Z,1004.80
2019-02-16T03:45:21.242Z,1004.79
2019-02-16T03:46:21.327Z,1004.77
2019-02-16T03:47:21.405Z,1004.75
2019-02-16T03:48:21.483Z,1004.64
2019-02-16T03:49:21.567Z,1004.73
2019-02-16T03:50:21.644Z,1004.71
2019-02-16T03:51:21.722Z,1004.71
2019-02-16T03:52:21.807Z,1004.72
2019-02-16T03:53:21.890Z,1004.69
2019-02-16T03:54:21.970Z,1004.69
2019-02-16T03:55:22.051Z,1004.68
2019-02-16T03:56:22.132Z,1004.67
2019-02-16T03:57:22.220Z,1004.66
2019-02-16T03:58:22.310Z,1004.71
2019-02-16T03:59:22.391Z,1004.66
2019-02-16T04:00:22.464Z,1004.65
2019-02-16T04:01:22.555Z,1004.67
2019-02-16T04:02:22.643Z,1004.67
2019-02-16T04:03:22.721Z,1004.68
2019-02-16T04:04:22.809Z,1004.66
2019-02-16T04:05:22.905Z,1004.67
2019-02-16T04:06:22.998Z,1004.65
2019-02-16T04:07:23.056Z,1004.67
2019-02-16T04:08:23.136Z,1004.68
2019-02-16T04:09:23.249Z,1004.68
2019-02-16T04:10:23.321Z,1004.62
2019-02-16T04:11:23.412Z,1004.65
2019-02-16T04:12:23.498Z,1004.60
2019-02-16T04:13:23.580Z,1004.62
2019-02-16T04:14:23.661Z,1004.60
2019-02-16T04:15:23.744Z,1004.62
2019-02-16T04:16:23.832Z,1004.65
2019-02-16T04:17:23.916Z,1004.65
2019-02-16T04:18:24.001Z,1004.61
2019-02-16T04:19:24.082Z,1004.64
2019-02-16T04:20:24.168Z,1004.63
2019-02-16T04:21:24.244Z,1004.59
2019-02-16T04:22:25.075Z,1004.58
2019-02-16T04:23:24.393Z,1004.61
2019-02-16T04:24:24.496Z,1004.56
2019-02-16T04:25:24.580Z,1004.60
2019-02-16T04:26:24.661Z,1004.57
2019-02-16T04:27:24.742Z,1004.58
2019-02-16T04:28:24.822Z,1004.60
2019-02-16T04:29:24.915Z,1004.54
2019-02-16T04:30:25.008Z,1004.55
2019-02-16T04:31:25.075Z,1004.58
2019-02-16T04:32:25.167Z,1004.55
2019-02-16T04:33:25.251Z,1004.55
2019-02-16T04:34:25.360Z,1004.53
2019-02-16T04:35:25.418Z,1004.56
2019-02-16T04:36:25.496Z,1004.53
2019-02-16T04:37:25.571Z,1004.49
2019-02-16T04:38:25.688Z,1004.48
2019-02-16T04:39:25.766Z,1004.47
2019-02-16T04:40:25.844Z,1004.52
2019-02-16T04:41:25.930Z,1004.49
2019-02-16T04:42:26.011Z,1004.45
2019-02-16T04:43:26.091Z,1004.46
2019-02-16T04:44:26.173Z,1004.44
2019-02-16T04:45:26.248Z,1004.43
2019-02-16T04:46:26.329Z,1004.44
2019-02-16T04:47:26.411Z,1004.46
2019-02-16T04:48:26.493Z,1004.44
2019-02-16T04:49:26.576Z,1004.47
2019-02-16T04:50:26.648Z,1004.49
2019-02-16T04:51:26.746Z,1004.52
2019-02-16T04:52:34.293Z,1004.51
2019-02-16T04:53:26.893Z,1004.52
2019-02-16T04:54:26.973Z,1004.52
2019-02-16T04:55:27.055Z,1004.50
2019-02-16T04:56:27.139Z,1004.52
2019-02-16T04:57:27.215Z,1004.52
2019-02-16T04:58:27.294Z,1004.48
2019-02-16T04:59:27.377Z,1004.51
2019-02-16T05:00:27.471Z,1004.50
2019-02-16T05:01:27.541Z,1004.50
2019-02-16T05:02:27.630Z,1004.53
2019-02-16T05:03:27.716Z,1004.56
2019-02-16T05:04:27.795Z,1004.53
2019-02-16T05:05:27.883Z,1004.53
2019-02-16T05:06:27.958Z,1004.53
2019-02-16T05:07:28.040Z,1004.52
2019-02-16T05:08:28.126Z,1004.54
2019-02-16T05:09:28.209Z,1004.57
2019-02-16T05:10:28.292Z,1004.58
2019-02-16T05:11:28.368Z,1004.61
2019-02-16T05:12:28.453Z,1004.58
2019-02-16T05:13:28.542Z,1004.60
2019-02-16T05:14:28.609Z,1004.58
2019-02-16T05:15:28.694Z,1004.59
2019-02-16T05:16:28.773Z,1004.60
2019-02-16T05:17:28.861Z,1004.57
2019-02-16T05:18:28.945Z,1004.55
2019-02-16T05:19:29.048Z,1004.54
2019-02-16T05:20:29.126Z,1004.52
2019-02-16T05:21:29.218Z,1004.52
2019-02-16T05:22:29.296Z,1004.54
2019-02-16T05:23:29.378Z,1004.53
2019-02-16T05:24:29.468Z,1004.53
2019-02-16T05:25:29.560Z,1004.51
2019-02-16T05:26:29.648Z,1004.60
2019-02-16T05:27:29.731Z,1004.59
2019-02-16T05:28:29.815Z,1004.58
2019-02-16T05:29:29.902Z,1004.59
2019-02-16T05:30:29.972Z,1004.59
2019-02-16T05:31:30.066Z,1004.56
2019-02-16T05:32:30.148Z,1004.56
2019-02-16T05:33:30.234Z,1004.52
2019-02-16T05:34:30.313Z,1004.51
2019-02-16T05:35:30.403Z,1004.52
2019-02-16T05:36:30.478Z,1004.53
2019-02-16T05:37:30.672Z,1004.51
2019-02-16T05:38:30.662Z,1004.49
2019-02-16T05:39:30.742Z,1004.53
2019-02-16T05:40:30.822Z,1004.51
2019-02-16T05:41:30.907Z,1004.54
2019-02-16T05:42:30.976Z,1004.51
2019-02-16T05:43:31.085Z,1004.50
2019-02-16T05:44:31.167Z,1004.53
2019-02-16T05:45:31.242Z,1004.51
2019-02-16T05:46:31.334Z,1004.54
2019-02-16T05:47:31.409Z,1004.53
2019-02-16T05:48:31.487Z,1004.52
2019-02-16T05:49:31.584Z,1004.52
2019-02-16T05:50:31.685Z,1004.47
2019-02-16T05:51:31.770Z,1004.47
2019-02-16T05:52:31.850Z,1004.47
2019-02-16T05:53:31.934Z,1004.41
2019-02-16T05:54:32.017Z,1004.43
2019-02-16T05:55:32.099Z,1004.45
2019-02-16T05:56:32.183Z,1004.45
2019-02-16T05:57:32.264Z,1004.43
2019-02-16T05:58:32.350Z,1004.47
2019-02-16T05:59:32.435Z,1004.53
2019-02-16T06:00:32.526Z,1004.49
2019-02-16T06:01:32.608Z,1004.49
2019-02-16T06:02:32.692Z,1004.51
2019-02-16T06:03:32.780Z,1004.53
2019-02-16T06:04:32.869Z,1004.53
2019-02-16T06:05:32.948Z,1004.55
2019-02-16T06:06:33.033Z,1004.58
2019-02-16T06:07:33.132Z,1004.64
2019-02-16T06:08:33.214Z,1004.61
2019-02-16T06:09:33.297Z,1004.67
2019-02-16T06:10:33.378Z,1004.69
2019-02-16T06:11:33.469Z,1004.60
2019-02-16T06:12:33.538Z,1004.68
2019-02-16T06:13:33.638Z,1004.66
2019-02-16T06:14:33.721Z,1004.66
2019-02-16T06:15:33.813Z,1004.68
2019-02-16T06:16:33.907Z,1004.67
2019-02-16T06:17:33.988Z,1004.68
2019-02-16T06:18:34.062Z,1004.65
2019-02-16T06:19:34.152Z,1004.67
2019-02-16T06:20:34.233Z,1004.67
2019-02-16T06:21:34.320Z,1004.62
2019-02-16T06:22:34.416Z,1004.70
2019-02-16T06:23:34.486Z,1004.68
2019-02-16T06:24:34.559Z,1004.74
2019-02-16T06:25:34.658Z,1004.73
2019-02-16T06:26:34.743Z,1004.77
2019-02-16T06:27:34.826Z,1004.75
2019-02-16T06:28:35.621Z,1004.71
2019-02-16T06:29:35.008Z,1004.77
2019-02-16T06:30:35.085Z,1004.75
2019-02-16T06:31:35.167Z,1004.70
2019-02-16T06:32:35.251Z,1004.73
2019-02-16T06:33:35.340Z,1004.70
2019-02-16T06:34:35.427Z,1004.73
2019-02-16T06:35:35.515Z,1004.71
2019-02-16T06:36:35.599Z,1004.72
2019-02-16T06:37:35.680Z,1004.69
2019-02-16T06:38:35.763Z,1004.74
2019-02-16T06:39:35.851Z,1004.77
2019-02-16T06:40:35.931Z,1004.74
2019-02-16T06:41:36.009Z,1004.68
2019-02-16T06:42:36.091Z,1004.65
2019-02-16T06:43:36.192Z,1004.67
2019-02-16T06:44:36.274Z,1004.65
2019-02-16T06:45:36.366Z,1004.59
2019-02-16T06:46:36.449Z,1004.60
2019-02-16T06:47:36.514Z,1004.54
2019-02-16T06:48:36.583Z,1004.53
2019-02-16T06:49:36.663Z,1004.54
2019-02-16T06:50:37.337Z,1004.50
2019-02-16T06:51:36.827Z,1004.55
2019-02-16T06:52:36.910Z,1004.61
2019-02-16T06:53:37.006Z,1004.68
2019-02-16T06:54:37.086Z,1004.77
2019-02-16T06:55:37.165Z,1004.76
2019-02-16T06:56:37.256Z,1004.71
2019-02-16T06:57:37.337Z,1004.68
2019-02-16T06:58:37.411Z,1004.69
2019-02-16T06:59:37.480Z,1004.66
2019-02-16T07:00:37.559Z,1004.57
2019-02-16T07:01:37.646Z,1004.56
2019-02-16T07:02:37.719Z,1004.59
2019-02-16T07:03:37.797Z,1004.65
2019-02-16T07:04:37.878Z,1004.70
2019-02-16T07:05:38.156Z,1004.72
2019-02-16T07:06:38.062Z,1004.72
2019-02-16T07:07:38.115Z,1004.70
2019-02-16T07:08:38.203Z,1004.76
2019-02-16T07:09:38.271Z,1004.73
2019-02-16T07:10:38.345Z,1004.72
2019-02-16T07:11:38.440Z,1004.67
2019-02-16T07:12:38.521Z,1004.65
2019-02-16T07:13:38.588Z,1004.72
2019-02-16T07:14:38.676Z,1004.73
2019-02-16T07:15:38.743Z,1004.69
2019-02-16T07:16:38.829Z,1004.71
2019-02-16T07:17:38.909Z,1004.68
2019-02-16T07:18:38.992Z,1004.69
2019-02-16T07:19:39.096Z,1004.67
2019-02-16T07:20:39.165Z,1004.64
2019-02-16T07:21:39.292Z,1004.65
2019-02-16T07:22:39.324Z,1004.66
2019-02-16T07:23:39.392Z,1004.64
2019-02-16T07:24:39.463Z,1004.65
2019-02-16T07:25:39.598Z,1004.64
2019-02-16T07:26:39.640Z,1004.59
2019-02-16T07:27:39.725Z,1004.59
2019-02-16T07:28:39.817Z,1004.58
2019-02-16T07:29:39.898Z,1004.61
2019-02-16T07:30:39.987Z,1004.61
2019-02-16T07:31:40.053Z,1004.59
2019-02-16T07:32:40.128Z,1004.59
2019-02-16T07:33:40.216Z,1004.58
2019-02-16T07:34:40.294Z,1004.63
2019-02-16T07:35:40.376Z,1004.61
2019-02-16T07:36:48.103Z,1004.63
2019-02-16T07:37:40.572Z,1004.64
2019-02-16T07:38:40.656Z,1004.67
2019-02-16T07:39:40.740Z,1004.63
2019-02-16T07:40:40.829Z,1004.67
2019-02-16T07:41:40.910Z,1004.60
2019-02-16T07:42:40.997Z,1004.61
2019-02-16T07:43:41.080Z,1004.57
2019-02-16T07:44:41.168Z,1004.56
2019-02-16T07:45:41.257Z,1004.54
2019-02-16T07:46:41.343Z,1004.53
2019-02-16T07:47:41.455Z,1004.55
2019-02-16T07:48:41.513Z,1004.59
2019-02-16T07:49:41.595Z,1004.61
2019-02-16T07:50:41.683Z,1004.57
2019-02-16T07:51:41.769Z,1004.53
2019-02-16T07:52:41.858Z,1004.52
2019-02-16T07:53:42.025Z,1004.51
2019-02-16T07:56:14.234Z,1004.48
2019-02-16T07:57:14.264Z,1004.44
2019-02-16T07:58:14.355Z,1004.45
2019-02-16T07:59:14.440Z,1004.43
2019-02-16T08:00:14.528Z,1004.43
2019-02-16T08:01:14.616Z,1004.45
2019-02-16T08:02:14.702Z,1004.48
2019-02-16T08:03:14.788Z,1004.47
2019-02-16T08:04:14.872Z,1004.46
2019-02-16T08:05:14.966Z,1004.45
2019-02-16T08:06:15.045Z,1004.46
2019-02-16T08:07:15.130Z,1004.48
2019-02-16T08:08:15.213Z,1004.50
2019-02-16T08:09:15.300Z,1004.54
2019-02-16T08:10:15.389Z,1004.55
2019-02-16T08:11:15.473Z,1004.57
2019-02-16T08:12:15.558Z,1004.60
2019-02-16T08:13:15.641Z,1004.62
2019-02-16T08:14:15.729Z,1004.59
2019-02-16T08:15:15.875Z,1004.58
2019-02-16T08:16:15.899Z,1004.63
2019-02-16T08:17:15.991Z,1004.62
2019-02-16T08:18:16.074Z,1004.65
2019-02-16T08:19:16.159Z,1004.66
2019-02-16T08:20:16.245Z,1004.70
2019-02-16T08:21:16.330Z,1004.71
2019-02-16T08:22:16.420Z,1004.71
2019-02-16T08:23:16.510Z,1004.64
2019-02-16T08:24:16.591Z,1004.66
2019-02-16T08:25:16.679Z,1004.61
2019-02-16T08:26:16.766Z,1004.62
2019-02-16T08:27:16.851Z,1004.62
2019-02-16T08:28:16.935Z,1004.64
2019-02-16T08:29:17.018Z,1004.60
2019-02-16T08:30:17.108Z,1004.59
2019-02-16T08:31:17.194Z,1004.58
2019-02-16T08:32:17.279Z,1004.61
2019-02-16T08:33:17.383Z,1004.64
2019-02-16T08:34:17.457Z,1004.56
2019-02-16T08:35:17.551Z,1004.58
2019-02-16T08:36:17.625Z,1004.55
2019-02-16T08:37:17.712Z,1004.56
2019-02-16T08:38:17.797Z,1004.57
2019-02-16T08:39:17.885Z,1004.54
2019-02-16T08:40:17.972Z,1004.53
2019-02-16T08:41:18.057Z,1004.54
2019-02-16T08:42:18.149Z,1004.51
2019-02-16T08:43:18.234Z,1004.48
2019-02-16T08:44:18.322Z,1004.52
2019-02-16T08:45:18.409Z,1004.49
2019-02-16T08:46:18.532Z,1004.45
2019-02-16T08:47:18.582Z,1004.42
2019-02-16T08:48:18.666Z,1004.42
2019-02-16T08:49:18.752Z,1004.41
2019-02-16T08:50:18.838Z,1004.40
2019-02-16T08:51:18.921Z,1004.39
2019-02-16T08:52:19.012Z,1004.38
2019-02-16T08:53:19.101Z,1004.37
2019-02-16T08:54:19.189Z,1004.41
2019-02-16T08:55:19.273Z,1004.36
2019-02-16T08:56:19.364Z,1004.40
2019-02-16T08:57:19.447Z,1004.34
2019-02-16T08:58:19.540Z,1004.34
2019-02-16T08:59:19.623Z,1004.31
2019-02-16T09:00:19.726Z,1004.31
2019-02-16T09:01:19.814Z,1004.28
2019-02-16T09:02:19.901Z,1004.24
2019-02-16T09:03:19.995Z,1004.24
2019-02-16T09:04:20.079Z,1004.22
2019-02-16T09:05:20.171Z,1004.21
2019-02-16T09:06:20.261Z,1004.24
2019-02-16T09:07:20.341Z,1004.21
2019-02-16T09:08:20.429Z,1004.16
2019-02-16T09:09:20.516Z,1004.17
2019-02-16T09:10:20.602Z,1004.16
2019-02-16T09:11:20.699Z,1004.17
2019-02-16T09:12:20.776Z,1004.20
2019-02-16T09:13:20.861Z,1004.20
2019-02-16T09:14:20.949Z,1004.20
2019-02-16T09:15:21.038Z,1004.20
2019-02-16T09:16:21.124Z,1004.20
2019-02-16T09:17:21.214Z,1004.24
2019-02-16T09:18:21.302Z,1004.19
2019-02-16T09:19:21.394Z,1004.20
2019-02-16T09:20:21.476Z,1004.21
2019-02-16T09:21:21.564Z,1004.20
2019-02-16T09:22:21.655Z,1004.19
2019-02-16T09:23:21.741Z,1004.13
2019-02-16T09:24:21.831Z,1004.12
2019-02-16T09:25:21.921Z,1004.09
2019-02-16T09:26:22.003Z,1004.07
2019-02-16T09:27:22.090Z,1004.05
2019-02-16T09:28:22.179Z,1004.07
2019-02-16T09:29:22.268Z,1004.03
2019-02-16T09:30:22.359Z,1003.99
2019-02-16T09:31:22.443Z,1003.99
2019-02-16T09:32:22.534Z,1004.01
2019-02-16T09:33:22.623Z,1003.99
2019-02-16T09:34:22.713Z,1003.97
2019-02-16T09:35:22.801Z,1003.95
2019-02-16T09:36:22.888Z,1003.93
2019-02-16T09:37:22.982Z,1003.90
2019-02-16T09:38:23.064Z,1003.90
2019-02-16T09:39:23.151Z,1003.90
2019-02-16T09:40:23.240Z,1003.91
2019-02-16T09:41:23.326Z,1003.88
2019-02-16T09:42:23.419Z,1003.87
2019-02-16T09:43:23.525Z,1003.88
2019-02-16T09:44:23.615Z,1003.90
2019-02-16T09:45:23.704Z,1003.92
2019-02-16T09:46:23.793Z,1003.93
2019-02-16T09:47:23.880Z,1004.00
2019-02-16T09:48:23.968Z,1004.02
2019-02-16T09:49:24.062Z,1004.01
2019-02-16T09:50:24.145Z,1004.01
2019-02-16T09:51:24.234Z,1003.97
2019-02-16T09:52:24.321Z,1004.01
2019-02-16T09:53:24.408Z,1004.00
2019-02-16T09:54:24.534Z,1003.99
2019-02-16T09:55:24.591Z,1003.97
2019-02-16T09:56:24.675Z,1003.95
2019-02-16T09:57:24.777Z,1003.96
2019-02-16T09:58:24.850Z,1003.96
2019-02-16T09:59:24.941Z,1003.98
2019-02-16T10:00:25.030Z,1004.01
2019-02-16T10:01:25.120Z,1004.01
2019-02-16T10:02:25.209Z,1004.02
2019-02-16T10:03:25.344Z,1003.93
2019-02-16T10:04:25.377Z,1004.01
2019-02-16T10:05:25.462Z,1003.97
2019-02-16T10:06:25.552Z,1003.99
2019-02-16T10:07:25.639Z,1004.01
2019-02-16T10:08:25.714Z,1003.98
2019-02-16T10:09:25.823Z,1004.01
2019-02-16T10:10:25.914Z,1004.01
2019-02-16T10:11:26.009Z,1004.00
2019-02-16T10:12:26.095Z,1003.97
2019-02-16T10:13:26.190Z,1003.94
2019-02-16T10:14:26.280Z,1003.89
2019-02-16T10:15:26.369Z,1003.94
2019-02-16T10:16:26.457Z,1003.91
2019-02-16T10:17:26.546Z,1003.92
2019-02-16T10:18:26.635Z,1003.95
2019-02-16T10:19:26.724Z,1003.96
2019-02-16T10:20:26.814Z,1003.95
2019-02-16T10:21:26.899Z,1003.94
2019-02-16T10:22:26.993Z,1003.99
2019-02-16T10:23:27.081Z,1003.98
2019-02-16T10:24:27.174Z,1004.04
2019-02-16T10:25:27.259Z,1004.09
2019-02-16T10:26:27.348Z,1004.03
2019-02-16T10:27:27.443Z,1004.08
2019-02-16T10:28:27.530Z,1004.12
2019-02-16T10:29:27.618Z,1004.10
2019-02-16T10:33:10.841Z,1004.10
2019-02-16T10:34:10.934Z,1004.10
2019-02-16T10:35:11.023Z,1004.12
2019-02-16T10:36:11.123Z,1004.12
2019-02-16T10:37:11.208Z,1004.13
2019-02-16T10:38:11.300Z,1004.14
2019-02-16T10:39:11.390Z,1004.15
2019-02-16T10:40:11.480Z,1004.18
2019-02-16T10:41:11.570Z,1004.10
2019-02-16T10:42:11.659Z,1004.11
2019-02-16T10:43:11.745Z,1004.11
2019-02-16T10:44:11.833Z,1004.07
2019-02-16T10:45:11.924Z,1004.05
2019-02-16T10:46:12.015Z,1004.08
2019-02-16T10:47:12.104Z,1004.06
2019-02-16T10:48:12.199Z,1004.03
2019-02-16T10:49:12.279Z,1004.05
2019-02-16T10:50:12.385Z,1004.01
2019-02-16T10:51:12.474Z,1004.06
2019-02-16T10:52:12.564Z,1004.02
2019-02-16T10:53:12.659Z,1004.05
2019-02-16T10:54:12.748Z,1004.02
2019-02-16T10:55:12.833Z,1004.00
2019-02-16T10:56:12.929Z,1004.02
2019-02-16T10:57:13.019Z,1003.98
2019-02-16T10:58:13.114Z,1003.98
2019-02-16T10:59:13.207Z,1003.92
2019-02-16T11:00:13.296Z,1003.91
2019-02-16T11:01:13.395Z,1003.90
2019-02-16T11:02:14.720Z,1003.89
2019-02-16T11:03:13.579Z,1003.89
2019-02-16T11:04:13.679Z,1003.85
2019-02-16T11:05:13.751Z,1003.88
2019-02-16T11:06:13.841Z,1003.86
2019-02-16T11:07:13.934Z,1003.86
2019-02-16T11:08:14.029Z,1003.86
2019-02-16T11:09:14.122Z,1003.88
2019-02-16T11:10:14.221Z,1003.82
2019-02-16T11:11:14.308Z,1003.84
2019-02-16T11:12:14.401Z,1003.78
2019-02-16T11:13:14.491Z,1003.81
2019-02-16T11:14:14.585Z,1003.85
2019-02-16T11:15:14.675Z,1003.77
2019-02-16T11:16:14.771Z,1003.84
2019-02-16T11:17:14.860Z,1003.78
2019-02-16T11:18:14.953Z,1003.79
2019-02-16T11:19:15.047Z,1003.80
2019-02-16T11:20:15.139Z,1003.78
2019-02-16T11:21:15.235Z,1003.82
2019-02-16T11:22:15.327Z,1003.81
2019-02-16T11:23:15.418Z,1003.79
2019-02-16T11:24:15.510Z,1003.77
2019-02-16T11:25:15.604Z,1003.74
2019-02-16T11:26:15.697Z,1003.75
2019-02-16T11:27:15.809Z,1003.73
2019-02-16T11:28:15.903Z,1003.71
2019-02-16T11:29:15.993Z,1003.62
2019-02-16T11:30:16.085Z,1003.62
2019-02-16T11:31:16.179Z,1003.57
2019-02-16T11:32:16.274Z,1003.59
2019-02-16T11:33:16.365Z,1003.59
2019-02-16T11:34:16.452Z,1003.59
2019-02-16T11:35:16.541Z,1003.54
2019-02-16T11:36:16.635Z,1003.58
2019-02-16T11:37:16.730Z,1003.55
2019-02-16T11:38:16.827Z,1003.54
2019-02-16T11:39:16.937Z,1003.49
2019-02-16T11:40:17.030Z,1003.49
2019-02-16T11:41:19.239Z,1003.49
2019-02-16T11:42:17.216Z,1003.52
2019-02-16T11:43:17.315Z,1003.45
2019-02-16T11:44:17.402Z,1003.48
2019-02-16T11:45:17.496Z,1003.44
2019-02-16T11:46:17.590Z,1003.44
2019-02-16T11:47:17.683Z,1003.43
2019-02-16T11:48:17.777Z,1003.43
2019-02-16T11:49:17.870Z,1003.47
2019-02-16T11:50:17.966Z,1003.46
2019-02-16T11:51:18.066Z,1003.44
2019-02-16T11:52:18.155Z,1003.39
2019-02-16T11:53:18.253Z,1003.39
2019-02-16T11:54:18.346Z,1003.36
2019-02-16T11:55:18.438Z,1003.33
2019-02-16T11:56:18.531Z,1003.32
2019-02-16T11:57:18.624Z,1003.34
2019-02-16T11:58:18.717Z,1003.41
2019-02-16T11:59:18.810Z,1003.37
2019-02-16T12:00:18.898Z,1003.35
2019-02-16T12:01:18.998Z,1003.37
2019-02-16T12:02:19.091Z,1003.42
2019-02-16T12:03:19.324Z,1003.38
2019-02-16T12:04:19.320Z,1003.35
2019-02-16T12:05:19.383Z,1003.37
2019-02-16T12:06:19.476Z,1003.34
2019-02-16T12:07:19.572Z,1003.29
2019-02-16T12:08:19.668Z,1003.31
2019-02-16T12:09:19.761Z,1003.32
2019-02-16T12:10:19.855Z,1003.25